createdAt,value
2017-10-16T00:00:59.552Z,94.40
2017-10-16T00:03:27.975Z,86.97
2017-10-16T00:05:56.351Z,92.93
2017-10-16T00:08:24.857Z,102.57
2017-10-16T00:10:53.445Z,97.03
2017-10-16T00:13:21.816Z,112.23
2017-10-16T00:15:51.039Z,153.13
2017-10-16T00:18:19.431Z,89.60
2017-10-16T00:20:47.791Z,74.67
2017-10-16T00:23:16.331Z,78.80
2017-10-16T00:25:44.711Z,114.73
2017-10-16T00:28:13.387Z,134.67
2017-10-16T00:30:42.159Z,100.30
2017-10-16T00:33:11.289Z,69.27
2017-10-16T00:35:39.697Z,84.43
2017-10-16T00:38:08.529Z,94.43
2017-10-16T00:40:36.915Z,71.00
2017-10-16T00:43:05.304Z,61.63
2017-10-16T00:45:33.746Z,66.57
2017-10-16T00:48:02.945Z,63.40
2017-10-16T00:50:32.120Z,79.87
2017-10-16T00:53:00.637Z,70.93
2017-10-16T00:55:29.839Z,71.67
2017-10-16T00:57:58.247Z,69.07
2017-10-16T01:00:26.709Z,57.80
2017-10-16T01:02:55.096Z,71.03
2017-10-16T01:05:23.551Z,78.93
2017-10-16T01:07:53.010Z,123.67
2017-10-16T01:10:21.488Z,100.63
2017-10-16T01:12:49.917Z,95.20
2017-10-16T01:15:19.405Z,98.50
2017-10-16T01:17:47.785Z,68.50
2017-10-16T01:20:16.210Z,70.00
2017-10-16T01:22:44.665Z,68.77
2017-10-16T01:25:13.113Z,111.43
2017-10-16T01:27:41.532Z,70.97
2017-10-16T01:30:10.455Z,63.57
2017-10-16T01:32:38.857Z,53.00
2017-10-16T01:35:07.319Z,48.10
2017-10-16T01:37:35.898Z,63.77
2017-10-16T01:40:05.162Z,54.40
2017-10-16T01:42:33.576Z,55.67
2017-10-16T01:45:02.031Z,58.07
2017-10-16T01:47:30.440Z,56.07
2017-10-16T01:49:59.125Z,56.27
2017-10-16T01:52:27.657Z,51.67
2017-10-16T01:54:56.097Z,50.00
2017-10-16T01:57:24.520Z,46.80
2017-10-16T01:59:53.721Z,44.87
2017-10-16T02:02:22.961Z,43.97
2017-10-16T02:04:51.340Z,42.87
2017-10-16T02:07:19.896Z,41.37
2017-10-16T02:09:48.293Z,39.30
2017-10-16T02:12:16.733Z,36.40
2017-10-16T02:14:46.050Z,34.40
2017-10-16T02:17:14.421Z,36.37
2017-10-16T02:19:43.575Z,34.27
2017-10-16T02:22:12.070Z,34.60
2017-10-16T02:24:40.472Z,31.23
2017-10-16T02:27:09.626Z,33.77
2017-10-16T02:29:38.034Z,35.70
2017-10-16T02:32:06.978Z,35.37
2017-10-16T02:34:35.350Z,36.03
2017-10-16T02:37:03.917Z,34.97
2017-10-16T02:39:32.301Z,32.90
2017-10-16T02:42:00.693Z,36.03
2017-10-16T02:44:29.111Z,37.47
2017-10-16T02:46:57.489Z,32.47
2017-10-16T02:49:25.894Z,41.60
2017-10-16T02:51:55.380Z,46.67
2017-10-16T02:54:23.762Z,49.33
2017-10-16T02:56:52.158Z,51.00
2017-10-16T02:59:21.536Z,47.53
2017-10-16T03:01:49.910Z,47.93
2017-10-16T03:04:18.295Z,47.30
2017-10-16T03:06:47.792Z,52.80
2017-10-16T03:09:16.226Z,74.83
2017-10-16T03:11:44.671Z,67.67
2017-10-16T03:14:13.202Z,50.67
2017-10-16T03:16:41.695Z,80.47
2017-10-16T03:19:10.099Z,76.00
2017-10-16T03:21:38.612Z,57.27
2017-10-16T03:24:07.003Z,72.23
2017-10-16T03:26:35.367Z,58.30
2017-10-16T03:29:03.802Z,58.33
2017-10-16T03:31:32.944Z,57.00
2017-10-16T03:34:01.559Z,62.60
2017-10-16T03:36:30.056Z,61.50
2017-10-16T03:38:59.199Z,58.10
2017-10-16T03:41:28.353Z,49.93
2017-10-16T03:43:56.755Z,55.97
2017-10-16T03:46:25.134Z,61.60
2017-10-16T03:48:53.570Z,59.33
2017-10-16T03:51:22.181Z,97.93
2017-10-16T03:53:50.617Z,86.93
2017-10-16T03:56:18.980Z,57.90
2017-10-16T03:58:48.259Z,56.47
2017-10-16T04:01:16.637Z,53.10
2017-10-16T04:03:45.049Z,82.23
2017-10-16T04:06:14.385Z,64.60
2017-10-16T04:08:42.752Z,79.03
2017-10-16T04:11:11.135Z,60.90
2017-10-16T04:13:39.573Z,55.83
2017-10-16T04:16:08.716Z,47.53
2017-10-16T04:18:37.295Z,68.87
2017-10-16T04:21:05.817Z,69.50
2017-10-16T04:23:34.204Z,55.90
2017-10-16T04:26:03.403Z,53.80
2017-10-16T04:28:32.301Z,64.60
2017-10-16T04:31:01.482Z,59.50
2017-10-16T04:33:29.910Z,66.17
2017-10-16T04:35:58.643Z,57.13
2017-10-16T04:38:27.074Z,60.63
2017-10-16T04:40:55.450Z,74.10
2017-10-16T04:43:24.232Z,100.00
2017-10-16T04:45:52.671Z,50.27
2017-10-16T04:48:21.074Z,39.77
2017-10-16T04:50:50.427Z,41.67
2017-10-16T04:53:18.801Z,41.43
2017-10-16T04:55:47.385Z,49.93
2017-10-16T04:58:16.104Z,39.40
2017-10-16T05:00:44.497Z,46.27
2017-10-16T05:03:12.911Z,54.37
2017-10-16T05:05:41.688Z,41.10
2017-10-16T05:08:10.115Z,68.47
2017-10-16T05:10:38.529Z,42.33
2017-10-16T05:13:07.967Z,37.57
2017-10-16T05:15:36.326Z,38.90
2017-10-16T05:18:04.723Z,48.10
2017-10-16T05:20:33.198Z,37.73
2017-10-16T05:23:01.630Z,43.57
2017-10-16T05:25:30.800Z,57.73
2017-10-16T05:27:59.249Z,57.60
2017-10-16T05:30:27.691Z,47.60
2017-10-16T05:32:56.104Z,47.90
2017-10-16T05:35:24.574Z,44.33
2017-10-16T05:37:54.135Z,48.10
2017-10-16T05:40:23.270Z,52.13
2017-10-16T05:42:52.564Z,38.87
2017-10-16T05:45:21.766Z,51.13
2017-10-16T05:47:50.989Z,50.73
2017-10-16T05:50:19.543Z,48.43
2017-10-16T05:52:47.997Z,52.77
2017-10-16T05:55:16.452Z,66.70
2017-10-16T05:57:44.964Z,70.50
2017-10-16T06:00:13.393Z,44.93
2017-10-16T06:02:41.776Z,66.47
2017-10-16T06:05:10.591Z,44.57
2017-10-16T06:07:39.075Z,53.90
2017-10-16T06:10:07.528Z,51.23
2017-10-16T06:12:35.984Z,43.40
2017-10-16T06:15:05.184Z,43.67
2017-10-16T06:17:34.392Z,42.67
2017-10-16T06:20:02.893Z,44.93
2017-10-16T06:22:31.540Z,40.20
2017-10-16T06:25:00.710Z,44.57
2017-10-16T06:27:29.315Z,42.03
2017-10-16T06:29:58.495Z,46.23
2017-10-16T06:32:26.923Z,42.40
2017-10-16T06:34:55.574Z,32.73
2017-10-16T06:37:23.999Z,38.83
2017-10-16T06:39:53.010Z,43.00
2017-10-16T06:42:21.531Z,35.00
2017-10-16T06:44:50.687Z,42.80
2017-10-16T06:47:19.575Z,39.87
2017-10-16T06:49:48.062Z,27.33
2017-10-16T06:52:16.534Z,45.70
2017-10-16T06:54:44.910Z,33.10
2017-10-16T06:57:14.191Z,36.77
2017-10-16T06:59:42.924Z,37.20
2017-10-16T07:02:12.205Z,41.73
2017-10-16T07:04:40.830Z,35.73
2017-10-16T07:07:10.985Z,38.17
2017-10-16T07:09:39.392Z,38.80
2017-10-16T07:12:08.241Z,42.10
2017-10-16T07:14:36.649Z,46.40
2017-10-16T07:17:05.079Z,40.60
2017-10-16T07:19:34.932Z,47.00
2017-10-16T07:22:03.323Z,41.30
2017-10-16T07:24:31.971Z,47.90
2017-10-16T07:27:00.563Z,32.90
2017-10-16T07:29:28.975Z,47.60
2017-10-16T07:31:57.372Z,48.23
2017-10-16T07:34:25.805Z,47.93
2017-10-16T07:36:54.265Z,45.67
2017-10-16T07:39:23.472Z,44.00
2017-10-16T07:41:52.834Z,43.60
2017-10-16T07:44:21.276Z,47.37
2017-10-16T07:46:49.790Z,41.90
2017-10-16T07:49:18.272Z,43.60
2017-10-16T07:51:46.693Z,45.23
2017-10-16T07:54:15.174Z,37.70
2017-10-16T07:56:44.377Z,40.67
2017-10-16T07:59:12.778Z,36.93
2017-10-16T08:01:41.568Z,38.37
2017-10-16T08:04:10.190Z,36.93
2017-10-16T08:06:38.603Z,31.80
2017-10-16T08:09:07.827Z,37.93
2017-10-16T08:11:36.476Z,35.00
2017-10-16T08:14:05.691Z,36.60
2017-10-16T08:16:34.087Z,40.70
2017-10-16T08:19:02.710Z,39.33
2017-10-16T08:21:31.169Z,34.87
2017-10-16T08:23:59.612Z,36.60
2017-10-16T08:26:28.588Z,37.20
2017-10-16T08:28:57.814Z,35.87
2017-10-16T08:31:26.257Z,39.77
2017-10-16T08:33:54.854Z,36.23
2017-10-16T08:36:23.297Z,31.50
2017-10-16T08:38:51.888Z,38.50
2017-10-16T08:41:20.964Z,34.27
2017-10-16T08:43:50.846Z,28.23
2017-10-16T08:46:19.282Z,33.97
2017-10-16T08:48:49.033Z,38.07
2017-10-16T08:51:18.374Z,37.27
2017-10-16T08:53:46.953Z,32.07
2017-10-16T08:56:15.655Z,36.50
2017-10-16T08:58:45.609Z,36.07
2017-10-16T09:01:14.083Z,32.67
2017-10-16T09:03:44.351Z,23.60
2017-10-16T09:06:12.802Z,32.43
2017-10-16T09:08:41.284Z,33.63
2017-10-16T09:11:09.840Z,30.17
2017-10-16T09:13:38.308Z,30.43
2017-10-16T09:16:06.846Z,33.83
2017-10-16T09:18:35.487Z,34.80
2017-10-16T09:21:04.590Z,44.17
2017-10-16T09:23:33.063Z,40.57
2017-10-16T09:26:01.990Z,37.13
2017-10-16T09:28:32.657Z,34.93
2017-10-16T09:31:02.805Z,33.73
2017-10-16T09:33:31.312Z,42.40
2017-10-16T09:36:00.510Z,33.83
2017-10-16T09:38:29.765Z,37.13
2017-10-16T09:40:59.074Z,38.37
2017-10-16T09:43:27.516Z,36.90
2017-10-16T09:45:56.411Z,35.10
2017-10-16T09:48:25.556Z,29.57
2017-10-16T09:50:54.576Z,32.80
2017-10-16T09:53:23.564Z,40.57
2017-10-16T09:55:53.992Z,40.03
2017-10-16T09:58:23.185Z,38.30
2017-10-16T10:00:53.601Z,34.50
2017-10-16T10:03:23.064Z,40.70
2017-10-16T10:05:51.538Z,37.13
2017-10-16T10:08:20.652Z,33.70
2017-10-16T10:10:49.142Z,34.60
2017-10-16T10:13:18.249Z,35.47
2017-10-16T10:15:46.971Z,32.17
2017-10-16T10:18:15.372Z,33.07
2017-10-16T10:20:43.832Z,32.97
2017-10-16T10:23:13.082Z,37.53
2017-10-16T10:25:41.539Z,30.50
2017-10-16T10:28:10.222Z,32.37
2017-10-16T10:30:38.707Z,32.90
2017-10-16T10:33:09.924Z,35.40
2017-10-16T10:35:39.274Z,34.10
2017-10-16T10:38:07.803Z,36.57
2017-10-16T10:40:36.987Z,33.80
2017-10-16T10:43:05.403Z,34.67
2017-10-16T10:45:37.332Z,38.40
2017-10-16T10:48:06.600Z,26.50
2017-10-16T10:50:35.000Z,25.93
2017-10-16T10:53:04.395Z,31.10
2017-10-16T10:55:32.800Z,34.17
2017-10-16T10:58:01.226Z,34.57
2017-10-16T11:00:29.782Z,31.40
2017-10-16T11:02:58.300Z,30.03
2017-10-16T11:05:26.902Z,34.97
2017-10-16T11:07:56.793Z,31.07
2017-10-16T11:10:25.975Z,34.43
2017-10-16T11:12:55.426Z,31.70
2017-10-16T11:15:25.279Z,35.17
2017-10-16T11:17:53.893Z,32.50
2017-10-16T11:20:26.873Z,35.53
2017-10-16T11:22:57.174Z,36.50
2017-10-16T11:25:25.646Z,33.43
2017-10-16T11:27:57.087Z,33.17
2017-10-16T11:30:26.066Z,35.67
2017-10-16T11:32:55.326Z,34.03
2017-10-16T11:35:24.407Z,36.90
2017-10-16T11:37:54.004Z,31.90
2017-10-16T11:40:22.556Z,33.70
2017-10-16T11:42:54.636Z,31.50
2017-10-16T11:45:23.264Z,35.80
2017-10-16T11:47:51.686Z,34.40
2017-10-16T11:50:21.404Z,31.63
2017-10-16T11:52:50.069Z,35.80
2017-10-16T11:55:19.296Z,37.90
2017-10-16T11:57:47.788Z,36.50
2017-10-16T12:00:16.535Z,32.20
2017-10-16T12:02:46.679Z,34.97
2017-10-16T12:05:15.184Z,33.53
2017-10-16T12:07:44.648Z,33.27
2017-10-16T12:10:13.363Z,34.40
2017-10-16T12:12:41.833Z,33.70
2017-10-16T12:15:10.509Z,31.20
2017-10-16T12:17:39.071Z,33.07
2017-10-16T12:20:08.292Z,33.53
2017-10-16T12:22:36.771Z,31.07
2017-10-16T12:25:08.145Z,31.80
2017-10-16T12:27:37.834Z,28.83
2017-10-16T12:30:07.228Z,28.00
2017-10-16T12:32:37.706Z,26.93
2017-10-16T12:35:08.326Z,30.10
2017-10-16T12:37:38.158Z,31.00
2017-10-16T12:40:07.681Z,29.70
2017-10-16T12:42:36.246Z,29.93
2017-10-16T12:45:05.484Z,29.50
2017-10-16T12:47:36.417Z,30.33
2017-10-16T12:50:08.214Z,26.43
2017-10-16T12:52:37.079Z,28.47
2017-10-16T12:55:06.113Z,26.47
2017-10-16T12:57:35.413Z,24.90
2017-10-16T13:00:05.391Z,27.87
2017-10-16T13:02:34.633Z,25.13
2017-10-16T13:05:26.895Z,24.30
2017-10-16T13:07:55.953Z,26.10
2017-10-16T13:10:26.633Z,26.73
2017-10-16T13:12:55.861Z,24.83
2017-10-16T13:15:26.171Z,21.10
2017-10-16T13:17:55.897Z,25.03
2017-10-16T13:20:24.517Z,23.00
2017-10-16T13:22:53.018Z,22.10
2017-10-16T13:25:22.393Z,23.67
2017-10-16T13:27:51.341Z,24.40
2017-10-16T13:30:22.467Z,20.10
2017-10-16T13:32:52.403Z,19.50
2017-10-16T13:35:20.931Z,24.10
2017-10-16T13:37:49.434Z,22.23
2017-10-16T13:40:19.536Z,23.23
2017-10-16T13:42:48.005Z,20.37
2017-10-16T13:45:17.407Z,24.30
2017-10-16T13:47:46.061Z,24.20
2017-10-16T13:50:14.617Z,24.57
2017-10-16T13:52:46.128Z,23.97
2017-10-16T13:55:15.464Z,24.17
2017-10-16T13:57:43.982Z,24.97
2017-10-16T14:00:12.482Z,25.07
2017-10-16T14:02:41.390Z,23.07
2017-10-16T14:05:09.889Z,21.97
2017-10-16T14:07:38.912Z,22.90
2017-10-16T14:10:08.224Z,22.17
2017-10-16T14:12:36.718Z,21.20
2017-10-16T14:15:05.187Z,23.40
2017-10-16T14:17:35.121Z,24.17
2017-10-16T14:20:04.175Z,22.63
2017-10-16T14:22:32.662Z,22.50
2017-10-16T14:25:01.315Z,24.23
2017-10-16T14:27:29.802Z,24.47
2017-10-16T14:29:58.680Z,24.00
2017-10-16T14:32:28.114Z,24.43
2017-10-16T14:34:57.308Z,21.07
2017-10-16T14:37:26.542Z,21.57
2017-10-16T14:39:55.880Z,21.10
2017-10-16T14:42:25.804Z,20.43
2017-10-16T14:44:54.307Z,21.07
2017-10-16T14:47:22.790Z,20.07
2017-10-16T14:49:51.374Z,22.10
2017-10-16T14:52:21.076Z,18.57
2017-10-16T14:54:53.132Z,19.57
2017-10-16T14:57:22.396Z,16.97
2017-10-16T14:59:50.929Z,20.20
2017-10-16T15:02:22.064Z,20.40
2017-10-16T15:04:51.338Z,19.17
2017-10-16T15:07:19.840Z,17.30
2017-10-16T15:09:49.168Z,16.60
2017-10-16T15:12:18.577Z,17.83
2017-10-16T15:14:47.022Z,17.40
2017-10-16T15:17:18.402Z,17.50
2017-10-16T15:19:46.993Z,16.97
2017-10-16T15:22:15.465Z,15.80
2017-10-16T15:24:43.973Z,18.17
2017-10-16T15:27:13.427Z,17.60
2017-10-16T15:29:43.539Z,16.10
2017-10-16T15:32:13.037Z,18.00
2017-10-16T15:34:41.506Z,15.47
2017-10-16T15:37:09.949Z,16.50
2017-10-16T15:39:38.508Z,16.50
2017-10-16T15:42:06.933Z,16.97
2017-10-16T15:44:35.500Z,17.57
2017-10-16T15:47:04.010Z,17.80
2017-10-16T15:49:32.766Z,18.93
2017-10-16T15:52:01.288Z,16.50
2017-10-16T15:54:30.128Z,21.47
2017-10-16T15:56:59.217Z,18.80
2017-10-16T15:59:28.281Z,18.43
2017-10-16T16:01:57.142Z,19.60
2017-10-16T16:04:26.573Z,19.47
2017-10-16T16:06:55.877Z,19.23
2017-10-16T16:09:25.328Z,19.40
2017-10-16T16:11:53.776Z,18.67
2017-10-16T16:14:23.023Z,18.67
2017-10-16T16:16:51.502Z,19.70
2017-10-16T16:19:20.777Z,18.10
2017-10-16T16:21:50.124Z,18.90
2017-10-16T16:24:18.632Z,17.57
2017-10-16T16:26:47.901Z,19.93
2017-10-16T16:29:16.373Z,19.00
2017-10-16T16:31:45.852Z,20.20
2017-10-16T16:34:14.306Z,19.97
2017-10-16T16:36:43.539Z,18.27
2017-10-16T16:39:12.301Z,18.77
2017-10-16T16:41:40.902Z,19.57
2017-10-16T16:44:09.422Z,21.17
2017-10-16T16:46:38.559Z,18.40
2017-10-16T16:49:08.381Z,18.40
2017-10-16T16:51:36.810Z,19.77
2017-10-16T16:54:05.564Z,18.30
2017-10-16T16:56:34.080Z,18.27
2017-10-16T16:59:02.895Z,18.33
2017-10-16T17:01:32.254Z,18.63
2017-10-16T17:04:01.454Z,17.27
2017-10-16T17:06:29.894Z,20.10
2017-10-16T17:08:58.530Z,21.73
2017-10-16T17:11:27.209Z,20.87
2017-10-16T17:13:56.437Z,25.60
2017-10-16T17:16:25.645Z,28.60
2017-10-16T17:18:54.863Z,26.97
2017-10-16T17:21:23.280Z,23.57
2017-10-16T17:23:51.856Z,24.77
2017-10-16T17:26:20.278Z,22.33
2017-10-16T17:28:49.502Z,23.00
2017-10-16T17:31:18.075Z,23.03
2017-10-16T17:33:46.570Z,22.10
2017-10-16T17:36:15.063Z,21.10
2017-10-16T17:38:43.614Z,22.37
2017-10-16T17:41:12.795Z,22.87
2017-10-16T17:43:41.268Z,25.60
2017-10-16T17:46:11.057Z,25.30
2017-10-16T17:48:39.741Z,25.07
2017-10-16T17:51:08.364Z,23.33
2017-10-16T17:53:38.711Z,25.23
2017-10-16T17:56:07.393Z,23.60
2017-10-16T17:58:36.069Z,23.53
2017-10-16T18:01:06.400Z,25.30
2017-10-16T18:03:35.646Z,25.17
2017-10-16T18:06:04.156Z,31.60
2017-10-16T18:08:33.480Z,36.63
2017-10-16T18:11:02.724Z,32.00
2017-10-16T18:13:31.254Z,32.77
2017-10-16T18:16:00.661Z,36.87
2017-10-16T18:18:29.772Z,32.43
2017-10-16T18:20:58.253Z,28.60
2017-10-16T18:23:28.634Z,29.27
2017-10-16T18:25:57.254Z,29.50
2017-10-16T18:28:25.685Z,29.23
2017-10-16T18:30:54.258Z,29.93
2017-10-16T18:33:23.427Z,28.20
2017-10-16T18:35:51.876Z,29.03
2017-10-16T18:38:21.149Z,28.50
2017-10-16T18:40:49.603Z,26.97
2017-10-16T18:43:17.997Z,26.30
2017-10-16T18:45:46.524Z,29.33
2017-10-16T18:48:15.717Z,28.40
2017-10-16T18:50:45.146Z,28.10
2017-10-16T18:53:13.917Z,29.67
2017-10-16T18:55:43.102Z,30.20
2017-10-16T18:58:12.349Z,26.97
2017-10-16T19:00:41.068Z,25.60
2017-10-16T19:03:09.721Z,29.43
2017-10-16T19:05:38.130Z,31.13
2017-10-16T19:08:07.442Z,30.10
2017-10-16T19:10:36.631Z,27.07
2017-10-16T19:13:05.059Z,26.33
2017-10-16T19:15:33.847Z,29.40
2017-10-16T19:18:02.266Z,26.40
2017-10-16T19:20:30.702Z,29.20
2017-10-16T19:22:59.406Z,28.80
2017-10-16T19:25:27.914Z,27.87
2017-10-16T19:27:56.358Z,30.07
2017-10-16T19:30:24.841Z,29.13
2017-10-16T19:32:53.305Z,33.37
2017-10-16T19:35:22.539Z,28.93
2017-10-16T19:37:51.076Z,32.57
2017-10-16T19:40:20.782Z,31.10
2017-10-16T19:42:50.005Z,30.83
2017-10-16T19:45:18.574Z,26.20
2017-10-16T19:47:47.808Z,27.33
2017-10-16T19:50:16.275Z,25.87
2017-10-16T19:52:44.904Z,28.13
2017-10-16T19:55:13.356Z,29.30
2017-10-16T19:57:41.771Z,28.90
2017-10-16T20:00:10.359Z,33.10
2017-10-16T20:02:38.864Z,34.07
2017-10-16T20:05:07.802Z,33.87
2017-10-16T20:07:36.508Z,31.70
2017-10-16T20:10:04.978Z,33.80
2017-10-16T20:12:34.189Z,32.10
2017-10-16T20:15:02.761Z,32.73
2017-10-16T20:17:31.265Z,32.87
2017-10-16T20:19:59.879Z,31.73
2017-10-16T20:22:28.359Z,32.20
2017-10-16T20:24:56.803Z,30.60
2017-10-16T20:27:26.008Z,33.60
2017-10-16T20:29:55.370Z,35.00
2017-10-16T20:32:23.877Z,34.20
2017-10-16T20:34:52.347Z,34.43
2017-10-16T20:37:20.920Z,31.10
2017-10-16T20:39:49.337Z,29.90
2017-10-16T20:42:17.802Z,31.07
2017-10-16T20:44:46.630Z,29.57
2017-10-16T20:47:15.842Z,30.33
2017-10-16T20:49:44.272Z,30.70
2017-10-16T20:52:12.876Z,31.37
2017-10-16T20:54:42.170Z,27.80
2017-10-16T20:57:11.367Z,31.30
2017-10-16T20:59:40.061Z,33.00
2017-10-16T21:02:09.308Z,30.60
2017-10-16T21:04:37.717Z,31.87
2017-10-16T21:07:06.710Z,30.27
2017-10-16T21:09:35.152Z,30.33
2017-10-16T21:12:03.610Z,30.40
2017-10-16T21:14:32.129Z,34.10
2017-10-16T21:17:00.565Z,32.87
2017-10-16T21:19:29.021Z,34.97
2017-10-16T21:21:57.493Z,34.67
2017-10-16T21:24:25.957Z,35.30
2017-10-16T21:26:54.417Z,36.60
2017-10-16T21:29:23.087Z,32.77
2017-10-16T21:31:51.604Z,34.27
2017-10-16T21:34:20.121Z,36.80
2017-10-16T21:36:48.974Z,32.30
2017-10-16T21:39:18.177Z,36.47
2017-10-16T21:41:46.614Z,36.50
2017-10-16T21:44:15.226Z,37.70
2017-10-16T21:46:44.546Z,36.43
2017-10-16T21:49:13.021Z,46.40
2017-10-16T21:51:41.614Z,40.97
2017-10-16T21:54:10.059Z,45.20
2017-10-16T21:56:38.573Z,43.00
2017-10-16T21:59:07.136Z,45.40
2017-10-16T22:01:35.501Z,49.77
2017-10-16T22:04:04.321Z,45.67
2017-10-16T22:06:32.961Z,46.87
2017-10-16T22:09:01.604Z,52.67
2017-10-16T22:11:30.415Z,46.80
2017-10-16T22:13:59.638Z,45.87
2017-10-16T22:16:28.055Z,49.80
2017-10-16T22:18:56.512Z,64.13
2017-10-16T22:21:24.996Z,66.30
2017-10-16T22:23:53.434Z,63.53
2017-10-16T22:26:22.891Z,76.83
2017-10-16T22:28:51.607Z,50.40
2017-10-16T22:31:20.041Z,51.93
2017-10-16T22:33:48.709Z,49.97
2017-10-16T22:36:17.250Z,53.83
2017-10-16T22:38:45.675Z,51.10
2017-10-16T22:41:14.091Z,58.17
2017-10-16T22:43:42.559Z,51.20
2017-10-16T22:46:11.084Z,56.30
2017-10-16T22:48:41.043Z,68.80
2017-10-16T22:51:09.878Z,53.87
2017-10-16T22:53:38.382Z,61.80
2017-10-16T22:56:06.822Z,75.30
2017-10-16T22:58:35.390Z,67.27
2017-10-16T23:01:03.831Z,53.13
2017-10-16T23:03:32.229Z,60.13
2017-10-16T23:06:00.677Z,66.73
2017-10-16T23:08:29.880Z,59.00
2017-10-16T23:10:58.486Z,79.77
2017-10-16T23:13:27.078Z,89.80
2017-10-16T23:15:55.509Z,88.90
2017-10-16T23:18:23.977Z,90.67
2017-10-16T23:20:52.593Z,78.40
2017-10-16T23:23:22.186Z,82.07
2017-10-16T23:25:51.402Z,72.30
2017-10-16T23:28:19.867Z,68.57
2017-10-16T23:30:49.121Z,107.63
2017-10-16T23:33:17.572Z,85.63
2017-10-16T23:35:46.104Z,87.83
2017-10-16T23:38:16.047Z,72.77
2017-10-16T23:40:44.480Z,83.10
2017-10-16T23:43:13.094Z,86.93
2017-10-16T23:45:41.519Z,59.90
2017-10-16T23:48:10.207Z,73.83
2017-10-16T23:50:38.725Z,73.10
2017-10-16T23:53:07.942Z,58.53
2017-10-16T23:55:36.388Z,74.50
2017-10-16T23:58:04.988Z,147.30
